KGSO/GSO METAR and TAF weather

Enter ICAO airport designator
Station Type Date Time Source
KGSO METAR 2021/05/17 22:54 UTC NOAA

KGSO 172254Z 03005KT 10SM BKN110 BKN180 OVC250 18/13 A3027 RMK AO2 SLP246 T01780128


Station Type Date Time Source
KGSO Decoded METAR 2021/05/17 22:54 UTC NOAA

PIEDMONT TRIAD INTERNATIONAL AIRPORT , NC, United States (KGSO) 36-06N 079-57W 275M
May 17, 2021 - 06:54 PM EDT / 2021.05.17 2254 UTC
Wind: from the NNE (030 degrees) at 6 MPH (5 KT):0
Visibility: 10 mile(s):0
Sky conditions: overcast
Temperature: 64.0 F (17.8 C)
Dew Point: 55.0 F (12.8 C)
Relative Humidity: 72%
Pressure (altimeter): 30.27 in. Hg (1025 hPa)
ob: KGSO 172254Z 03005KT 10SM BKN110 BKN180 OVC250 18/13 A3027 RMK AO2 SLP246 T01780128
cycle: 23

Station Type Date Time Source
KGSO TAF 2021/05/17 18:21 UTC NOAA

TAF KGSO 171720Z 1718/1818 05005KT P6SM OVC080
FM172300 07005KT P6SM VCSH BKN035 OVC050
FM180800 00000KT 5SM BR BKN015
FM181400 11005KT P6SM SCT025 BKN035

Example: see airport list